sensor_id;sensor_type;location;lat;lon;timestamp;temperature;humidity
71523;HTU21D;59343;51.102;5.884;2022-11-03T00:01:40;14.27;68.21
71523;HTU21D;59343;51.102;5.884;2022-11-03T00:04:08;14.27;68.18
71523;HTU21D;59343;51.102;5.884;2022-11-03T00:06:35;14.28;68.00
71523;HTU21D;59343;51.102;5.884;2022-11-03T00:09:03;14.28;67.94
71523;HTU21D;59343;51.102;5.884;2022-11-03T00:11:34;14.28;67.89
71523;HTU21D;59343;51.102;5.884;2022-11-03T00:14:02;14.28;67.80
71523;HTU21D;59343;51.102;5.884;2022-11-03T00:16:28;14.30;67.73
71523;HTU21D;59343;51.102;5.884;2022-11-03T00:18:54;14.27;67.72
71523;HTU21D;59343;51.102;5.884;2022-11-03T00:21:20;14.28;67.62
71523;HTU21D;59343;51.102;5.884;2022-11-03T00:23:47;14.28;67.55
71523;HTU21D;59343;51.102;5.884;2022-11-03T00:26:19;14.29;67.41
71523;HTU21D;59343;51.102;5.884;2022-11-03T00:28:56;14.29;67.33
71523;HTU21D;59343;51.102;5.884;2022-11-03T00:31:31;14.28;67.28
71523;HTU21D;59343;51.102;5.884;2022-11-03T00:33:59;14.26;67.38
71523;HTU21D;59343;51.102;5.884;2022-11-03T00:36:37;14.28;67.17
71523;HTU21D;59343;51.102;5.884;2022-11-03T00:39:04;14.27;67.21
71523;HTU21D;59343;51.102;5.884;2022-11-03T00:41:30;14.27;67.24
71523;HTU21D;59343;51.102;5.884;2022-11-03T00:43:56;14.27;67.19
71523;HTU21D;59343;51.102;5.884;2022-11-03T00:46:24;14.29;66.98
71523;HTU21D;59343;51.102;5.884;2022-11-03T00:48:50;14.26;67.10
71523;HTU21D;59343;51.102;5.884;2022-11-03T00:51:22;14.25;66.97
71523;HTU21D;59343;51.102;5.884;2022-11-03T00:53:55;14.25;66.94
71523;HTU21D;59343;51.102;5.884;2022-11-03T00:56:30;14.24;66.94
71523;HTU21D;59343;51.102;5.884;2022-11-03T00:58:58;14.24;67.01
71523;HTU21D;59343;51.102;5.884;2022-11-03T01:01:25;14.25;66.93
71523;HTU21D;59343;51.102;5.884;2022-11-03T01:03:54;14.26;66.87
71523;HTU21D;59343;51.102;5.884;2022-11-03T01:06:42;14.24;66.86
71523;HTU21D;59343;51.102;5.884;2022-11-03T01:09:27;14.25;66.84
71523;HTU21D;59343;51.102;5.884;2022-11-03T01:12:10;14.24;66.95
71523;HTU21D;59343;51.102;5.884;2022-11-03T01:14:48;14.27;66.72
71523;HTU21D;59343;51.102;5.884;2022-11-03T01:17:17;14.25;66.78
71523;HTU21D;59343;51.102;5.884;2022-11-03T01:19:44;14.25;66.94
71523;HTU21D;59343;51.102;5.884;2022-11-03T01:22:11;14.25;66.88
71523;HTU21D;59343;51.102;5.884;2022-11-03T01:24:42;14.28;66.69
71523;HTU21D;59343;51.102;5.884;2022-11-03T01:27:09;14.27;66.67
71523;HTU21D;59343;51.102;5.884;2022-11-03T01:29:38;14.28;66.81
71523;HTU21D;59343;51.102;5.884;2022-11-03T01:32:04;14.27;66.70
71523;HTU21D;59343;51.102;5.884;2022-11-03T01:34:31;14.28;66.71
71523;HTU21D;59343;51.102;5.884;2022-11-03T01:36:57;14.26;66.70
71523;HTU21D;59343;51.102;5.884;2022-11-03T01:39:23;14.28;66.72
71523;HTU21D;59343;51.102;5.884;2022-11-03T01:41:50;14.28;66.70
71523;HTU21D;59343;51.102;5.884;2022-11-03T01:49:34;14.25;66.80
71523;HTU21D;59343;51.102;5.884;2022-11-03T01:55:11;14.23;66.79
71523;HTU21D;59343;51.102;5.884;2022-11-03T01:57:52;14.24;66.77
71523;HTU21D;59343;51.102;5.884;2022-11-03T02:00:20;14.22;66.87
71523;HTU21D;59343;51.102;5.884;2022-11-03T02:02:46;14.23;66.80
71523;HTU21D;59343;51.102;5.884;2022-11-03T02:05:18;14.24;66.86
71523;HTU21D;59343;51.102;5.884;2022-11-03T02:07:48;14.23;66.85
71523;HTU21D;59343;51.102;5.884;2022-11-03T02:10:16;14.24;66.95
71523;HTU21D;59343;51.102;5.884;2022-11-03T02:12:43;14.24;67.05
71523;HTU21D;59343;51.102;5.884;2022-11-03T02:15:12;14.25;67.11
71523;HTU21D;59343;51.102;5.884;2022-11-03T02:17:41;14.26;67.06
71523;HTU21D;59343;51.102;5.884;2022-11-03T02:20:13;14.24;67.07
71523;HTU21D;59343;51.102;5.884;2022-11-03T02:28:02;14.15;67.43
71523;HTU21D;59343;51.102;5.884;2022-11-03T02:30:41;14.14;67.44
71523;HTU21D;59343;51.102;5.884;2022-11-03T02:36:09;14.12;67.51
71523;HTU21D;59343;51.102;5.884;2022-11-03T02:38:49;14.09;67.62
71523;HTU21D;59343;51.102;5.884;2022-11-03T02:41:21;14.08;67.68
71523;HTU21D;59343;51.102;5.884;2022-11-03T02:43:48;14.07;67.67
71523;HTU21D;59343;51.102;5.884;2022-11-03T02:46:16;14.05;67.63
71523;HTU21D;59343;51.102;5.884;2022-11-03T02:48:43;14.04;67.70
71523;HTU21D;59343;51.102;5.884;2022-11-03T02:51:08;14.05;67.74
71523;HTU21D;59343;51.102;5.884;2022-11-03T02:53:45;14.05;67.67
71523;HTU21D;59343;51.102;5.884;2022-11-03T02:56:20;14.04;67.68
71523;HTU21D;59343;51.102;5.884;2022-11-03T02:59:01;14.00;67.81
71523;HTU21D;59343;51.102;5.884;2022-11-03T03:01:38;14.03;67.85
71523;HTU21D;59343;51.102;5.884;2022-11-03T03:04:19;14.04;67.78
71523;HTU21D;59343;51.102;5.884;2022-11-03T03:06:56;14.03;67.80
71523;HTU21D;59343;51.102;5.884;2022-11-03T03:09:28;14.03;67.83
71523;HTU21D;59343;51.102;5.884;2022-11-03T03:11:58;14.05;67.78
71523;HTU21D;59343;51.102;5.884;2022-11-03T03:14:39;14.03;67.89
71523;HTU21D;59343;51.102;5.884;2022-11-03T03:17:40;14.01;68.04
71523;HTU21D;59343;51.102;5.884;2022-11-03T03:20:11;14.04;68.09
71523;HTU21D;59343;51.102;5.884;2022-11-03T03:22:46;14.05;68.07
71523;HTU21D;59343;51.102;5.884;2022-11-03T03:25:38;14.08;68.02
71523;HTU21D;59343;51.102;5.884;2022-11-03T03:28:24;14.08;68.07
71523;HTU21D;59343;51.102;5.884;2022-11-03T03:30:55;14.09;68.23
71523;HTU21D;59343;51.102;5.884;2022-11-03T03:33:24;14.11;68.17
71523;HTU21D;59343;51.102;5.884;2022-11-03T03:35:53;14.12;68.20
71523;HTU21D;59343;51.102;5.884;2022-11-03T03:38:25;14.13;68.30
71523;HTU21D;59343;51.102;5.884;2022-11-03T03:40:56;14.17;68.26
71523;HTU21D;59343;51.102;5.884;2022-11-03T03:43:27;14.18;68.23
71523;HTU21D;59343;51.102;5.884;2022-11-03T03:45:59;14.15;68.37
71523;HTU21D;59343;51.102;5.884;2022-11-03T03:48:27;14.14;68.51
71523;HTU21D;59343;51.102;5.884;2022-11-03T03:50:54;14.14;68.65
71523;HTU21D;59343;51.102;5.884;2022-11-03T03:53:20;14.13;68.70
71523;HTU21D;59343;51.102;5.884;2022-11-03T03:55:49;14.13;68.73
71523;HTU21D;59343;51.102;5.884;2022-11-03T03:58:16;14.14;68.83
71523;HTU21D;59343;51.102;5.884;2022-11-03T04:00:42;14.14;68.81
71523;HTU21D;59343;51.102;5.884;2022-11-03T04:03:15;14.12;69.00
71523;HTU21D;59343;51.102;5.884;2022-11-03T04:05:42;14.11;69.04
71523;HTU21D;59343;51.102;5.884;2022-11-03T04:08:10;14.10;69.17
71523;HTU21D;59343;51.102;5.884;2022-11-03T04:10:36;14.06;69.31
71523;HTU21D;59343;51.102;5.884;2022-11-03T04:13:02;14.01;69.57
71523;HTU21D;59343;51.102;5.884;2022-11-03T04:15:47;13.99;69.84
71523;HTU21D;59343;51.102;5.884;2022-11-03T04:18:18;13.96;70.07
71523;HTU21D;59343;51.102;5.884;2022-11-03T04:21:04;13.94;70.26
71523;HTU21D;59343;51.102;5.884;2022-11-03T04:23:49;13.94;70.36
71523;HTU21D;59343;51.102;5.884;2022-11-03T04:26:19;13.90;70.61
71523;HTU21D;59343;51.102;5.884;2022-11-03T04:28:49;13.86;70.83
71523;HTU21D;59343;51.102;5.884;2022-11-03T04:31:18;13.86;71.00
71523;HTU21D;59343;51.102;5.884;2022-11-03T04:33:45;13.88;71.10
71523;HTU21D;59343;51.102;5.884;2022-11-03T04:36:21;13.91;71.17
71523;HTU21D;59343;51.102;5.884;2022-11-03T04:38:48;13.90;71.28
71523;HTU21D;59343;51.102;5.884;2022-11-03T04:41:26;13.89;71.42
71523;HTU21D;59343;51.102;5.884;2022-11-03T04:43:54;13.90;71.49
71523;HTU21D;59343;51.102;5.884;2022-11-03T04:46:28;13.90;71.60
71523;HTU21D;59343;51.102;5.884;2022-11-03T04:49:00;13.92;71.70
71523;HTU21D;59343;51.102;5.884;2022-11-03T04:51:30;13.91;71.74
71523;HTU21D;59343;51.102;5.884;2022-11-03T04:54:03;13.92;71.89
71523;HTU21D;59343;51.102;5.884;2022-11-03T04:56:29;13.93;71.96
71523;HTU21D;59343;51.102;5.884;2022-11-03T04:58:57;13.92;72.04
71523;HTU21D;59343;51.102;5.884;2022-11-03T05:01:24;13.91;72.19
71523;HTU21D;59343;51.102;5.884;2022-11-03T05:03:52;13.92;72.26
71523;HTU21D;59343;51.102;5.884;2022-11-03T05:06:21;13.93;72.37
71523;HTU21D;59343;51.102;5.884;2022-11-03T05:08:55;13.92;72.57
71523;HTU21D;59343;51.102;5.884;2022-11-03T05:11:39;13.93;72.59
71523;HTU21D;59343;51.102;5.884;2022-11-03T05:16:43;13.97;72.56
71523;HTU21D;59343;51.102;5.884;2022-11-03T05:19:31;13.95;72.73
71523;HTU21D;59343;51.102;5.884;2022-11-03T05:22:02;13.99;72.70
71523;HTU21D;59343;51.102;5.884;2022-11-03T05:24:29;14.03;72.67
71523;HTU21D;59343;51.102;5.884;2022-11-03T05:26:57;14.01;72.72
71523;HTU21D;59343;51.102;5.884;2022-11-03T05:29:31;14.04;72.76
71523;HTU21D;59343;51.102;5.884;2022-11-03T05:31:59;14.08;72.69
71523;HTU21D;59343;51.102;5.884;2022-11-03T05:34:41;14.08;72.67
71523;HTU21D;59343;51.102;5.884;2022-11-03T05:37:31;14.11;72.65
71523;HTU21D;59343;51.102;5.884;2022-11-03T05:40:01;14.12;72.62
71523;HTU21D;59343;51.102;5.884;2022-11-03T05:42:33;14.15;72.52
71523;HTU21D;59343;51.102;5.884;2022-11-03T05:45:13;14.18;72.51
71523;HTU21D;59343;51.102;5.884;2022-11-03T05:47:40;14.18;72.59
71523;HTU21D;59343;51.102;5.884;2022-11-03T05:50:22;14.20;72.57
71523;HTU21D;59343;51.102;5.884;2022-11-03T05:55:51;14.21;72.57
71523;HTU21D;59343;51.102;5.884;2022-11-03T05:58:24;14.23;72.54
71523;HTU21D;59343;51.102;5.884;2022-11-03T06:00:53;14.24;72.47
71523;HTU21D;59343;51.102;5.884;2022-11-03T06:03:26;14.25;72.43
71523;HTU21D;59343;51.102;5.884;2022-11-03T06:05:54;14.26;72.39
71523;HTU21D;59343;51.102;5.884;2022-11-03T06:08:24;14.24;72.40
71523;HTU21D;59343;51.102;5.884;2022-11-03T06:10:53;14.26;72.41
71523;HTU21D;59343;51.102;5.884;2022-11-03T06:13:31;14.26;72.31
71523;HTU21D;59343;51.102;5.884;2022-11-03T06:16:20;14.27;72.36
71523;HTU21D;59343;51.102;5.884;2022-11-03T06:18:48;14.29;72.27
71523;HTU21D;59343;51.102;5.884;2022-11-03T06:21:23;14.29;72.24
71523;HTU21D;59343;51.102;5.884;2022-11-03T06:24:30;14.30;72.19
71523;HTU21D;59343;51.102;5.884;2022-11-03T06:27:22;14.28;72.09
71523;HTU21D;59343;51.102;5.884;2022-11-03T06:29:57;14.30;72.09
71523;HTU21D;59343;51.102;5.884;2022-11-03T06:32:24;14.32;72.03
71523;HTU21D;59343;51.102;5.884;2022-11-03T06:34:56;14.32;72.00
71523;HTU21D;59343;51.102;5.884;2022-11-03T06:37:31;14.33;72.10
71523;HTU21D;59343;51.102;5.884;2022-11-03T06:42:40;14.34;71.93
71523;HTU21D;59343;51.102;5.884;2022-11-03T06:45:22;14.34;71.88
71523;HTU21D;59343;51.102;5.884;2022-11-03T06:47:49;14.35;71.80
71523;HTU21D;59343;51.102;5.884;2022-11-03T06:50:27;14.35;71.81
71523;HTU21D;59343;51.102;5.884;2022-11-03T06:52:57;14.35;71.76
71523;HTU21D;59343;51.102;5.884;2022-11-03T06:55:32;14.37;71.75
71523;HTU21D;59343;51.102;5.884;2022-11-03T06:58:27;14.38;71.57
71523;HTU21D;59343;51.102;5.884;2022-11-03T07:01:01;14.38;71.61
71523;HTU21D;59343;51.102;5.884;2022-11-03T07:03:31;14.39;71.50
71523;HTU21D;59343;51.102;5.884;2022-11-03T07:08:38;14.40;71.45
71523;HTU21D;59343;51.102;5.884;2022-11-03T07:11:18;14.42;71.38
71523;HTU21D;59343;51.102;5.884;2022-11-03T07:13:51;14.43;71.38
71523;HTU21D;59343;51.102;5.884;2022-11-03T07:17:15;14.42;71.26
71523;HTU21D;59343;51.102;5.884;2022-11-03T07:19:25;14.44;71.29
71523;HTU21D;59343;51.102;5.884;2022-11-03T07:21:58;14.43;71.23
71523;HTU21D;59343;51.102;5.884;2022-11-03T07:24:38;14.44;71.25
71523;HTU21D;59343;51.102;5.884;2022-11-03T07:27:33;14.48;71.10
71523;HTU21D;59343;51.102;5.884;2022-11-03T07:32:34;14.53;70.89
71523;HTU21D;59343;51.102;5.884;2022-11-03T07:37:35;14.60;70.64
71523;HTU21D;59343;51.102;5.884;2022-11-03T07:40:11;14.63;70.43
71523;HTU21D;59343;51.102;5.884;2022-11-03T07:42:38;14.65;70.32
71523;HTU21D;59343;51.102;5.884;2022-11-03T07:51:04;14.66;70.23
71523;HTU21D;59343;51.102;5.884;2022-11-03T07:53:39;14.67;70.20
71523;HTU21D;59343;51.102;5.884;2022-11-03T07:56:17;14.70;70.10
71523;HTU21D;59343;51.102;5.884;2022-11-03T07:58:44;14.70;70.16
71523;HTU21D;59343;51.102;5.884;2022-11-03T08:03:49;14.72;70.13
71523;HTU21D;59343;51.102;5.884;2022-11-03T08:06:16;14.72;70.10
71523;HTU21D;59343;51.102;5.884;2022-11-03T08:08:41;14.75;70.00
71523;HTU21D;59343;51.102;5.884;2022-11-03T08:11:07;14.77;69.87
71523;HTU21D;59343;51.102;5.884;2022-11-03T08:13:33;14.78;69.87
71523;HTU21D;59343;51.102;5.884;2022-11-03T08:15:59;14.81;69.73
71523;HTU21D;59343;51.102;5.884;2022-11-03T08:18:26;14.82;69.59
71523;HTU21D;59343;51.102;5.884;2022-11-03T08:20:59;14.83;69.56
71523;HTU21D;59343;51.102;5.884;2022-11-03T08:23:27;14.83;69.55
71523;HTU21D;59343;51.102;5.884;2022-11-03T08:25:54;14.84;69.35
71523;HTU21D;59343;51.102;5.884;2022-11-03T08:28:20;14.85;69.44
71523;HTU21D;59343;51.102;5.884;2022-11-03T08:30:46;14.88;69.43
71523;HTU21D;59343;51.102;5.884;2022-11-03T08:33:12;14.88;69.28
71523;HTU21D;59343;51.102;5.884;2022-11-03T08:35:38;14.89;69.15
71523;HTU21D;59343;51.102;5.884;2022-11-03T08:38:05;14.93;69.06
71523;HTU21D;59343;51.102;5.884;2022-11-03T08:40:33;14.96;68.80
71523;HTU21D;59343;51.102;5.884;2022-11-03T08:42:59;14.98;68.70
71523;HTU21D;59343;51.102;5.884;2022-11-03T08:45:30;15.04;68.47
71523;HTU21D;59343;51.102;5.884;2022-11-03T08:48:02;15.12;68.42
71523;HTU21D;59343;51.102;5.884;2022-11-03T08:50:28;15.16;68.30
71523;HTU21D;59343;51.102;5.884;2022-11-03T08:52:55;15.21;67.91
71523;HTU21D;59343;51.102;5.884;2022-11-03T08:55:21;15.26;67.56
71523;HTU21D;59343;51.102;5.884;2022-11-03T08:57:47;15.28;67.25
71523;HTU21D;59343;51.102;5.884;2022-11-03T09:00:13;15.30;67.19
71523;HTU21D;59343;51.102;5.884;2022-11-03T09:02:44;15.34;66.95
71523;HTU21D;59343;51.102;5.884;2022-11-03T09:05:11;15.37;66.80
71523;HTU21D;59343;51.102;5.884;2022-11-03T09:07:38;15.41;66.56
71523;HTU21D;59343;51.102;5.884;2022-11-03T09:10:07;15.44;66.40
71523;HTU21D;59343;51.102;5.884;2022-11-03T09:12:33;15.47;66.17
71523;HTU21D;59343;51.102;5.884;2022-11-03T09:14:59;15.51;66.23
71523;HTU21D;59343;51.102;5.884;2022-11-03T09:17:25;15.55;66.07
71523;HTU21D;59343;51.102;5.884;2022-11-03T09:19:51;15.57;65.98
71523;HTU21D;59343;51.102;5.884;2022-11-03T09:22:17;15.61;65.73
71523;HTU21D;59343;51.102;5.884;2022-11-03T09:24:43;15.61;65.37
71523;HTU21D;59343;51.102;5.884;2022-11-03T09:27:09;15.58;65.32
71523;HTU21D;59343;51.102;5.884;2022-11-03T09:29:35;15.60;65.45
71523;HTU21D;59343;51.102;5.884;2022-11-03T09:32:01;15.58;65.40
71523;HTU21D;59343;51.102;5.884;2022-11-03T09:34:27;15.61;65.37
71523;HTU21D;59343;51.102;5.884;2022-11-03T09:36:55;15.61;65.47
71523;HTU21D;59343;51.102;5.884;2022-11-03T09:39:21;15.63;65.46
71523;HTU21D;59343;51.102;5.884;2022-11-03T09:41:47;15.63;65.53
71523;HTU21D;59343;51.102;5.884;2022-11-03T09:44:13;15.66;65.31
71523;HTU21D;59343;51.102;5.884;2022-11-03T09:46:40;15.67;65.21
71523;HTU21D;59343;51.102;5.884;2022-11-03T09:49:06;15.67;65.27
71523;HTU21D;59343;51.102;5.884;2022-11-03T09:51:34;15.66;65.41
71523;HTU21D;59343;51.102;5.884;2022-11-03T09:54:03;15.70;65.35
71523;HTU21D;59343;51.102;5.884;2022-11-03T09:56:34;15.69;65.27
71523;HTU21D;59343;51.102;5.884;2022-11-03T09:59:01;15.70;65.32
71523;HTU21D;59343;51.102;5.884;2022-11-03T10:01:27;15.70;65.29
71523;HTU21D;59343;51.102;5.884;2022-11-03T10:03:58;15.70;65.23
71523;HTU21D;59343;51.102;5.884;2022-11-03T10:06:24;15.70;65.17
71523;HTU21D;59343;51.102;5.884;2022-11-03T10:08:50;15.70;65.17
71523;HTU21D;59343;51.102;5.884;2022-11-03T10:11:17;15.71;65.11
71523;HTU21D;59343;51.102;5.884;2022-11-03T10:13:53;15.71;65.06
71523;HTU21D;59343;51.102;5.884;2022-11-03T10:16:23;15.72;65.17
71523;HTU21D;59343;51.102;5.884;2022-11-03T10:18:51;15.73;64.94
71523;HTU21D;59343;51.102;5.884;2022-11-03T10:21:21;15.75;64.88
71523;HTU21D;59343;51.102;5.884;2022-11-03T10:23:48;15.77;64.66
71523;HTU21D;59343;51.102;5.884;2022-11-03T10:26:17;15.77;64.47
71523;HTU21D;59343;51.102;5.884;2022-11-03T10:29:03;15.80;64.47
71523;HTU21D;59343;51.102;5.884;2022-11-03T10:31:38;15.83;64.40
71523;HTU21D;59343;51.102;5.884;2022-11-03T10:34:32;15.84;64.49
71523;HTU21D;59343;51.102;5.884;2022-11-03T10:37:09;15.86;64.23
71523;HTU21D;59343;51.102;5.884;2022-11-03T10:39:35;15.89;64.21
71523;HTU21D;59343;51.102;5.884;2022-11-03T10:42:02;15.93;64.03
71523;HTU21D;59343;51.102;5.884;2022-11-03T10:44:29;15.98;63.91
71523;HTU21D;59343;51.102;5.884;2022-11-03T10:49:21;16.02;63.33
71523;HTU21D;59343;51.102;5.884;2022-11-03T10:51:50;16.05;63.44
71523;HTU21D;59343;51.102;5.884;2022-11-03T10:54:21;16.07;63.36
71523;HTU21D;59343;51.102;5.884;2022-11-03T10:56:48;16.11;63.20
71523;HTU21D;59343;51.102;5.884;2022-11-03T10:59:16;16.11;63.02
71523;HTU21D;59343;51.102;5.884;2022-11-03T11:01:42;16.13;62.83
71523;HTU21D;59343;51.102;5.884;2022-11-03T11:04:16;16.17;62.65
71523;HTU21D;59343;51.102;5.884;2022-11-03T11:06:44;16.18;62.56
71523;HTU21D;59343;51.102;5.884;2022-11-03T11:09:21;16.20;62.34
71523;HTU21D;59343;51.102;5.884;2022-11-03T11:12:25;16.22;62.37
71523;HTU21D;59343;51.102;5.884;2022-11-03T11:14:55;16.20;62.15
71523;HTU21D;59343;51.102;5.884;2022-11-03T11:22:48;16.17;62.13
71523;HTU21D;59343;51.102;5.884;2022-11-03T11:25:17;16.20;62.17
71523;HTU21D;59343;51.102;5.884;2022-11-03T11:35:16;16.39;62.18
71523;HTU21D;59343;51.102;5.884;2022-11-03T11:37:43;16.44;62.06
71523;HTU21D;59343;51.102;5.884;2022-11-03T11:48:41;16.61;61.43
71523;HTU21D;59343;51.102;5.884;2022-11-03T11:51:09;16.60;61.21
71523;HTU21D;59343;51.102;5.884;2022-11-03T11:53:39;16.58;61.54
71523;HTU21D;59343;51.102;5.884;2022-11-03T11:56:10;16.59;61.68
71523;HTU21D;59343;51.102;5.884;2022-11-03T11:58:52;16.62;61.60
71523;HTU21D;59343;51.102;5.884;2022-11-03T12:04:04;16.65;61.28
71523;HTU21D;59343;51.102;5.884;2022-11-03T12:06:39;16.69;61.23
71523;HTU21D;59343;51.102;5.884;2022-11-03T12:14:36;16.63;61.03
71523;HTU21D;59343;51.102;5.884;2022-11-03T12:19:54;16.62;61.46
71523;HTU21D;59343;51.102;5.884;2022-11-03T12:24:56;16.65;61.20
71523;HTU21D;59343;51.102;5.884;2022-11-03T12:29:56;16.62;60.97
71523;HTU21D;59343;51.102;5.884;2022-11-03T12:32:23;16.62;60.81
71523;HTU21D;59343;51.102;5.884;2022-11-03T12:34:49;16.62;60.92
71523;HTU21D;59343;51.102;5.884;2022-11-03T12:37:15;16.62;60.87
71523;HTU21D;59343;51.102;5.884;2022-11-03T12:39:41;16.63;60.93
71523;HTU21D;59343;51.102;5.884;2022-11-03T12:42:07;16.64;61.00
71523;HTU21D;59343;51.102;5.884;2022-11-03T12:44:33;16.65;60.79
71523;HTU21D;59343;51.102;5.884;2022-11-03T12:46:59;16.67;60.69
71523;HTU21D;59343;51.102;5.884;2022-11-03T12:49:26;16.67;60.66
71523;HTU21D;59343;51.102;5.884;2022-11-03T12:51:52;16.65;60.59
71523;HTU21D;59343;51.102;5.884;2022-11-03T12:54:18;16.65;60.86
71523;HTU21D;59343;51.102;5.884;2022-11-03T12:56:44;16.69;60.72
71523;HTU21D;59343;51.102;5.884;2022-11-03T12:59:09;16.71;60.91
71523;HTU21D;59343;51.102;5.884;2022-11-03T13:01:35;16.74;60.88
71523;HTU21D;59343;51.102;5.884;2022-11-03T13:04:02;16.77;60.77
71523;HTU21D;59343;51.102;5.884;2022-11-03T13:06:32;16.77;60.63
71523;HTU21D;59343;51.102;5.884;2022-11-03T13:08:57;16.78;60.77
71523;HTU21D;59343;51.102;5.884;2022-11-03T13:11:23;16.80;60.91
71523;HTU21D;59343;51.102;5.884;2022-11-03T13:14:08;16.81;60.69
71523;HTU21D;59343;51.102;5.884;2022-11-03T13:16:34;16.84;60.80
71523;HTU21D;59343;51.102;5.884;2022-11-03T13:19:01;16.86;60.93
71523;HTU21D;59343;51.102;5.884;2022-11-03T13:21:27;16.88;60.99
71523;HTU21D;59343;51.102;5.884;2022-11-03T13:23:52;16.90;61.05
71523;HTU21D;59343;51.102;5.884;2022-11-03T13:26:19;16.90;60.95
71523;HTU21D;59343;51.102;5.884;2022-11-03T13:28:45;16.90;61.10
71523;HTU21D;59343;51.102;5.884;2022-11-03T13:31:11;16.87;61.21
71523;HTU21D;59343;51.102;5.884;2022-11-03T13:33:37;16.88;61.06
71523;HTU21D;59343;51.102;5.884;2022-11-03T13:36:04;16.85;60.96
71523;HTU21D;59343;51.102;5.884;2022-11-03T13:38:29;16.82;60.91
71523;HTU21D;59343;51.102;5.884;2022-11-03T13:40:55;16.81;60.83
71523;HTU21D;59343;51.102;5.884;2022-11-03T13:43:21;16.81;61.05
71523;HTU21D;59343;51.102;5.884;2022-11-03T13:45:47;16.79;61.34
71523;HTU21D;59343;51.102;5.884;2022-11-03T13:48:13;16.77;61.82
71523;HTU21D;59343;51.102;5.884;2022-11-03T13:50:39;16.78;62.41
71523;HTU21D;59343;51.102;5.884;2022-11-03T13:53:05;16.73;62.99
71523;HTU21D;59343;51.102;5.884;2022-11-03T13:55:31;16.67;63.95
71523;HTU21D;59343;51.102;5.884;2022-11-03T13:57:57;16.65;65.22
71523;HTU21D;59343;51.102;5.884;2022-11-03T14:00:23;16.58;65.66
71523;HTU21D;59343;51.102;5.884;2022-11-03T14:02:49;16.51;65.65
71523;HTU21D;59343;51.102;5.884;2022-11-03T14:05:15;16.48;65.92
71523;HTU21D;59343;51.102;5.884;2022-11-03T14:07:41;16.43;66.24
71523;HTU21D;59343;51.102;5.884;2022-11-03T14:10:08;16.40;66.72
71523;HTU21D;59343;51.102;5.884;2022-11-03T14:12:34;16.34;67.33
71523;HTU21D;59343;51.102;5.884;2022-11-03T14:15:05;16.28;67.97
71523;HTU21D;59343;51.102;5.884;2022-11-03T14:17:32;16.24;68.03
71523;HTU21D;59343;51.102;5.884;2022-11-03T14:19:58;16.18;68.20
71523;HTU21D;59343;51.102;5.884;2022-11-03T14:22:24;16.13;68.58
71523;HTU21D;59343;51.102;5.884;2022-11-03T14:24:51;16.13;68.94
71523;HTU21D;59343;51.102;5.884;2022-11-03T14:27:18;16.06;68.94
71523;HTU21D;59343;51.102;5.884;2022-11-03T14:29:45;15.98;69.20
71523;HTU21D;59343;51.102;5.884;2022-11-03T14:32:15;15.90;69.33
71523;HTU21D;59343;51.102;5.884;2022-11-03T14:34:41;15.80;70.00
71523;HTU21D;59343;51.102;5.884;2022-11-03T14:37:08;15.73;70.52
71523;HTU21D;59343;51.102;5.884;2022-11-03T14:39:35;15.68;71.25
71523;HTU21D;59343;51.102;5.884;2022-11-03T14:42:05;15.60;71.38
71523;HTU21D;59343;51.102;5.884;2022-11-03T14:44:34;15.54;71.77
71523;HTU21D;59343;51.102;5.884;2022-11-03T14:47:02;15.48;72.24
71523;HTU21D;59343;51.102;5.884;2022-11-03T14:49:30;15.42;72.56
71523;HTU21D;59343;51.102;5.884;2022-11-03T14:51:57;15.40;72.55
71523;HTU21D;59343;51.102;5.884;2022-11-03T14:54:28;15.41;72.38
71523;HTU21D;59343;51.102;5.884;2022-11-03T14:56:55;15.38;72.27
71523;HTU21D;59343;51.102;5.884;2022-11-03T14:59:22;15.36;72.52
71523;HTU21D;59343;51.102;5.884;2022-11-03T15:01:52;15.36;72.83
71523;HTU21D;59343;51.102;5.884;2022-11-03T15:04:20;15.37;72.77
71523;HTU21D;59343;51.102;5.884;2022-11-03T15:06:47;15.37;73.22
71523;HTU21D;59343;51.102;5.884;2022-11-03T15:09:13;15.36;73.33
71523;HTU21D;59343;51.102;5.884;2022-11-03T15:11:41;15.33;73.05
71523;HTU21D;59343;51.102;5.884;2022-11-03T15:14:07;15.34;73.15
71523;HTU21D;59343;51.102;5.884;2022-11-03T15:16:33;15.31;72.94
71523;HTU21D;59343;51.102;5.884;2022-11-03T15:19:04;15.32;72.96
71523;HTU21D;59343;51.102;5.884;2022-11-03T15:21:32;15.29;72.98
71523;HTU21D;59343;51.102;5.884;2022-11-03T15:23:58;15.30;72.87
71523;HTU21D;59343;51.102;5.884;2022-11-03T15:26:24;15.30;72.76
71523;HTU21D;59343;51.102;5.884;2022-11-03T15:28:50;15.28;72.82
71523;HTU21D;59343;51.102;5.884;2022-11-03T15:31:16;15.27;73.07
71523;HTU21D;59343;51.102;5.884;2022-11-03T15:33:42;15.28;73.19
71523;HTU21D;59343;51.102;5.884;2022-11-03T15:36:08;15.29;72.97
71523;HTU21D;59343;51.102;5.884;2022-11-03T15:38:34;15.28;72.92
71523;HTU21D;59343;51.102;5.884;2022-11-03T15:41:00;15.26;72.70
71523;HTU21D;59343;51.102;5.884;2022-11-03T15:43:46;15.29;72.78
71523;HTU21D;59343;51.102;5.884;2022-11-03T15:46:14;15.29;72.67
71523;HTU21D;59343;51.102;5.884;2022-11-03T15:48:41;15.28;72.63
71523;HTU21D;59343;51.102;5.884;2022-11-03T15:51:07;15.27;72.51
71523;HTU21D;59343;51.102;5.884;2022-11-03T15:53:33;15.25;72.67
71523;HTU21D;59343;51.102;5.884;2022-11-03T15:55:59;15.24;72.79
71523;HTU21D;59343;51.102;5.884;2022-11-03T15:58:26;15.24;72.95
71523;HTU21D;59343;51.102;5.884;2022-11-03T16:00:51;15.23;73.22
71523;HTU21D;59343;51.102;5.884;2022-11-03T16:03:17;15.22;73.34
71523;HTU21D;59343;51.102;5.884;2022-11-03T16:05:43;15.22;73.63
71523;HTU21D;59343;51.102;5.884;2022-11-03T16:08:09;15.18;73.72
71523;HTU21D;59343;51.102;5.884;2022-11-03T16:10:35;15.16;73.85
71523;HTU21D;59343;51.102;5.884;2022-11-03T16:13:01;15.16;73.96
71523;HTU21D;59343;51.102;5.884;2022-11-03T16:15:27;15.15;74.02
71523;HTU21D;59343;51.102;5.884;2022-11-03T16:17:52;15.14;73.95
71523;HTU21D;59343;51.102;5.884;2022-11-03T16:20:18;15.11;74.40
71523;HTU21D;59343;51.102;5.884;2022-11-03T16:22:45;15.08;74.54
71523;HTU21D;59343;51.102;5.884;2022-11-03T16:25:11;15.04;74.96
71523;HTU21D;59343;51.102;5.884;2022-11-03T16:27:37;15.01;75.12
71523;HTU21D;59343;51.102;5.884;2022-11-03T16:30:03;14.97;75.33
71523;HTU21D;59343;51.102;5.884;2022-11-03T16:32:30;14.93;75.86
71523;HTU21D;59343;51.102;5.884;2022-11-03T16:34:56;14.92;76.07
71523;HTU21D;59343;51.102;5.884;2022-11-03T16:37:22;14.88;76.41
71523;HTU21D;59343;51.102;5.884;2022-11-03T16:39:51;14.87;76.59
71523;HTU21D;59343;51.102;5.884;2022-11-03T16:42:17;14.85;77.09
71523;HTU21D;59343;51.102;5.884;2022-11-03T16:44:43;14.83;77.15
71523;HTU21D;59343;51.102;5.884;2022-11-03T16:47:09;14.84;77.50
71523;HTU21D;59343;51.102;5.884;2022-11-03T16:49:35;14.84;77.18
71523;HTU21D;59343;51.102;5.884;2022-11-03T16:52:09;14.81;77.23
71523;HTU21D;59343;51.102;5.884;2022-11-03T16:54:35;14.78;77.24